sensor_id;sensor_type;location;lat;lon;timestamp;P1;durP1;ratioP1;P2;durP2;ratioP2
15482;SDS011;7843;50.330;7.312;2023-11-21T00:02:13;0.20;;;0.20;;
15482;SDS011;7843;50.330;7.312;2023-11-21T00:04:40;0.30;;;0.30;;
15482;SDS011;7843;50.330;7.312;2023-11-21T00:07:07;0.40;;;0.40;;
15482;SDS011;7843;50.330;7.312;2023-11-21T00:09:33;0.30;;;0.30;;
15482;SDS011;7843;50.330;7.312;2023-11-21T00:12:01;0.40;;;0.40;;
15482;SDS011;7843;50.330;7.312;2023-11-21T00:14:28;0.20;;;0.20;;
15482;SDS011;7843;50.330;7.312;2023-11-21T00:16:55;1.17;;;0.98;;
15482;SDS011;7843;50.330;7.312;2023-11-21T00:19:22;1.42;;;0.93;;
15482;SDS011;7843;50.330;7.312;2023-11-21T00:21:49;1.20;;;0.70;;
15482;SDS011;7843;50.330;7.312;2023-11-21T00:24:16;1.48;;;0.85;;
15482;SDS011;7843;50.330;7.312;2023-11-21T00:26:43;0.60;;;0.60;;
15482;SDS011;7843;50.330;7.312;2023-11-21T00:29:10;1.60;;;0.90;;
15482;SDS011;7843;50.330;7.312;2023-11-21T00:31:37;1.50;;;0.90;;
15482;SDS011;7843;50.330;7.312;2023-11-21T00:34:05;1.60;;;1.07;;
15482;SDS011;7843;50.330;7.312;2023-11-21T00:36:31;0.60;;;0.50;;
15482;SDS011;7843;50.330;7.312;2023-11-21T00:38:58;0.50;;;0.50;;
15482;SDS011;7843;50.330;7.312;2023-11-21T00:41:25;2.40;;;0.60;;
15482;SDS011;7843;50.330;7.312;2023-11-21T00:43:55;0.57;;;0.57;;
15482;SDS011;7843;50.330;7.312;2023-11-21T00:46:22;1.50;;;0.65;;
15482;SDS011;7843;50.330;7.312;2023-11-21T00:48:50;0.52;;;0.50;;
15482;SDS011;7843;50.330;7.312;2023-11-21T00:51:17;0.63;;;0.47;;
15482;SDS011;7843;50.330;7.312;2023-11-21T00:53:44;1.17;;;0.52;;
15482;SDS011;7843;50.330;7.312;2023-11-21T00:56:10;0.65;;;0.63;;
15482;SDS011;7843;50.330;7.312;2023-11-21T00:58:38;0.50;;;0.50;;
15482;SDS011;7843;50.330;7.312;2023-11-21T01:01:05;0.50;;;0.50;;
15482;SDS011;7843;50.330;7.312;2023-11-21T01:03:31;0.77;;;0.68;;
15482;SDS011;7843;50.330;7.312;2023-11-21T01:05:58;0.30;;;0.30;;
15482;SDS011;7843;50.330;7.312;2023-11-21T01:08:25;1.20;;;0.47;;
15482;SDS011;7843;50.330;7.312;2023-11-21T01:10:52;0.85;;;0.75;;
15482;SDS011;7843;50.330;7.312;2023-11-21T01:13:18;0.70;;;0.52;;
15482;SDS011;7843;50.330;7.312;2023-11-21T01:15:45;2.80;;;1.08;;
15482;SDS011;7843;50.330;7.312;2023-11-21T01:18:12;0.55;;;0.47;;
15482;SDS011;7843;50.330;7.312;2023-11-21T01:20:39;1.33;;;1.20;;
15482;SDS011;7843;50.330;7.312;2023-11-21T01:23:06;0.73;;;0.70;;
15482;SDS011;7843;50.330;7.312;2023-11-21T01:25:33;0.30;;;0.30;;
15482;SDS011;7843;50.330;7.312;2023-11-21T01:27:59;1.00;;;0.90;;
15482;SDS011;7843;50.330;7.312;2023-11-21T01:30:26;0.95;;;0.73;;
15482;SDS011;7843;50.330;7.312;2023-11-21T01:32:53;1.02;;;0.93;;
15482;SDS011;7843;50.330;7.312;2023-11-21T01:35:20;2.42;;;0.80;;
15482;SDS011;7843;50.330;7.312;2023-11-21T01:37:46;0.55;;;0.52;;
15482;SDS011;7843;50.330;7.312;2023-11-21T01:40:14;0.50;;;0.50;;
15482;SDS011;7843;50.330;7.312;2023-11-21T01:42:41;0.88;;;0.70;;
15482;SDS011;7843;50.330;7.312;2023-11-21T01:45:10;1.60;;;0.90;;
15482;SDS011;7843;50.330;7.312;2023-11-21T01:47:38;7.43;;;0.77;;
15482;SDS011;7843;50.330;7.312;2023-11-21T01:50:08;0.63;;;0.63;;
15482;SDS011;7843;50.330;7.312;2023-11-21T01:52:38;2.10;;;1.23;;
15482;SDS011;7843;50.330;7.312;2023-11-21T01:55:06;1.17;;;0.80;;
15482;SDS011;7843;50.330;7.312;2023-11-21T01:57:35;1.30;;;1.02;;
15482;SDS011;7843;50.330;7.312;2023-11-21T02:00:06;0.57;;;0.50;;
15482;SDS011;7843;50.330;7.312;2023-11-21T02:02:48;0.93;;;0.70;;
15482;SDS011;7843;50.330;7.312;2023-11-21T02:05:15;1.55;;;0.75;;
15482;SDS011;7843;50.330;7.312;2023-11-21T02:07:44;0.73;;;0.63;;
15482;SDS011;7843;50.330;7.312;2023-11-21T02:10:14;0.57;;;0.57;;
15482;SDS011;7843;50.330;7.312;2023-11-21T02:12:42;0.75;;;0.70;;
15482;SDS011;7843;50.330;7.312;2023-11-21T02:15:10;0.65;;;0.63;;
15482;SDS011;7843;50.330;7.312;2023-11-21T02:17:43;1.40;;;1.10;;
15482;SDS011;7843;50.330;7.312;2023-11-21T02:20:10;2.28;;;0.80;;
15482;SDS011;7843;50.330;7.312;2023-11-21T02:22:41;0.55;;;0.55;;
15482;SDS011;7843;50.330;7.312;2023-11-21T02:25:09;1.00;;;0.70;;
15482;SDS011;7843;50.330;7.312;2023-11-21T02:27:36;0.60;;;0.60;;
15482;SDS011;7843;50.330;7.312;2023-11-21T02:30:03;1.30;;;0.85;;
15482;SDS011;7843;50.330;7.312;2023-11-21T02:32:31;2.65;;;0.85;;
15482;SDS011;7843;50.330;7.312;2023-11-21T02:34:58;1.50;;;0.93;;
15482;SDS011;7843;50.330;7.312;2023-11-21T02:37:27;1.25;;;0.90;;
15482;SDS011;7843;50.330;7.312;2023-11-21T02:39:53;1.55;;;1.20;;
15482;SDS011;7843;50.330;7.312;2023-11-21T02:42:20;2.42;;;1.25;;
15482;SDS011;7843;50.330;7.312;2023-11-21T02:44:47;1.23;;;0.50;;
15482;SDS011;7843;50.330;7.312;2023-11-21T02:47:14;0.90;;;0.83;;
15482;SDS011;7843;50.330;7.312;2023-11-21T02:49:40;1.20;;;0.90;;
15482;SDS011;7843;50.330;7.312;2023-11-21T02:52:07;1.77;;;1.13;;
15482;SDS011;7843;50.330;7.312;2023-11-21T02:54:35;1.35;;;1.23;;
15482;SDS011;7843;50.330;7.312;2023-11-21T02:57:02;1.90;;;1.20;;
15482;SDS011;7843;50.330;7.312;2023-11-21T02:59:29;1.42;;;1.00;;
15482;SDS011;7843;50.330;7.312;2023-11-21T03:01:56;1.10;;;1.00;;
15482;SDS011;7843;50.330;7.312;2023-11-21T03:04:23;1.90;;;0.98;;
15482;SDS011;7843;50.330;7.312;2023-11-21T03:06:50;0.65;;;0.65;;
15482;SDS011;7843;50.330;7.312;2023-11-21T03:09:16;1.73;;;1.52;;
15482;SDS011;7843;50.330;7.312;2023-11-21T03:11:43;1.15;;;1.05;;
15482;SDS011;7843;50.330;7.312;2023-11-21T03:14:10;3.83;;;1.65;;
15482;SDS011;7843;50.330;7.312;2023-11-21T03:16:37;2.37;;;1.20;;
15482;SDS011;7843;50.330;7.312;2023-11-21T03:19:04;1.45;;;1.08;;
15482;SDS011;7843;50.330;7.312;2023-11-21T03:21:31;2.35;;;1.92;;
15482;SDS011;7843;50.330;7.312;2023-11-21T03:23:58;3.72;;;2.22;;
15482;SDS011;7843;50.330;7.312;2023-11-21T03:26:26;2.60;;;1.40;;
15482;SDS011;7843;50.330;7.312;2023-11-21T03:28:52;2.10;;;1.80;;
15482;SDS011;7843;50.330;7.312;2023-11-21T03:31:19;2.60;;;1.55;;
15482;SDS011;7843;50.330;7.312;2023-11-21T03:33:47;2.28;;;1.55;;
15482;SDS011;7843;50.330;7.312;2023-11-21T03:36:14;1.98;;;1.45;;
15482;SDS011;7843;50.330;7.312;2023-11-21T03:38:44;4.10;;;1.60;;
15482;SDS011;7843;50.330;7.312;2023-11-21T03:41:11;1.52;;;1.23;;
15482;SDS011;7843;50.330;7.312;2023-11-21T03:43:37;1.60;;;1.10;;
15482;SDS011;7843;50.330;7.312;2023-11-21T03:46:04;8.25;;;2.13;;
15482;SDS011;7843;50.330;7.312;2023-11-21T03:48:31;1.67;;;1.50;;
15482;SDS011;7843;50.330;7.312;2023-11-21T03:50:59;2.30;;;1.45;;
15482;SDS011;7843;50.330;7.312;2023-11-21T03:53:29;3.95;;;2.03;;
15482;SDS011;7843;50.330;7.312;2023-11-21T03:55:55;2.03;;;1.55;;
15482;SDS011;7843;50.330;7.312;2023-11-21T03:58:23;1.95;;;1.58;;
15482;SDS011;7843;50.330;7.312;2023-11-21T04:00:50;2.00;;;1.40;;
15482;SDS011;7843;50.330;7.312;2023-11-21T04:03:17;2.65;;;1.42;;
15482;SDS011;7843;50.330;7.312;2023-11-21T04:05:43;2.63;;;1.25;;
15482;SDS011;7843;50.330;7.312;2023-11-21T04:08:12;2.00;;;1.30;;
15482;SDS011;7843;50.330;7.312;2023-11-21T04:10:38;2.08;;;1.30;;
15482;SDS011;7843;50.330;7.312;2023-11-21T04:13:05;2.08;;;1.67;;
15482;SDS011;7843;50.330;7.312;2023-11-21T04:15:32;1.40;;;1.20;;
15482;SDS011;7843;50.330;7.312;2023-11-21T04:17:59;2.10;;;1.20;;
15482;SDS011;7843;50.330;7.312;2023-11-21T04:20:26;1.38;;;1.10;;
15482;SDS011;7843;50.330;7.312;2023-11-21T04:22:53;2.05;;;1.25;;
15482;SDS011;7843;50.330;7.312;2023-11-21T04:25:20;2.35;;;1.85;;
15482;SDS011;7843;50.330;7.312;2023-11-21T04:27:46;6.07;;;1.50;;
15482;SDS011;7843;50.330;7.312;2023-11-21T04:30:13;2.15;;;1.55;;
15482;SDS011;7843;50.330;7.312;2023-11-21T04:32:41;3.10;;;1.83;;
15482;SDS011;7843;50.330;7.312;2023-11-21T04:35:11;3.00;;;1.90;;
15482;SDS011;7843;50.330;7.312;2023-11-21T04:37:37;1.93;;;1.47;;
15482;SDS011;7843;50.330;7.312;2023-11-21T04:40:04;1.37;;;1.03;;
15482;SDS011;7843;50.330;7.312;2023-11-21T04:42:35;1.50;;;0.90;;
15482;SDS011;7843;50.330;7.312;2023-11-21T04:45:03;1.25;;;0.73;;
15482;SDS011;7843;50.330;7.312;2023-11-21T04:47:34;1.13;;;0.90;;
15482;SDS011;7843;50.330;7.312;2023-11-21T04:50:02;0.50;;;0.40;;
15482;SDS011;7843;50.330;7.312;2023-11-21T04:52:29;0.65;;;0.60;;
15482;SDS011;7843;50.330;7.312;2023-11-21T04:54:56;1.08;;;0.63;;
15482;SDS011;7843;50.330;7.312;2023-11-21T04:57:24;1.58;;;0.63;;
15482;SDS011;7843;50.330;7.312;2023-11-21T04:59:51;0.47;;;0.47;;
15482;SDS011;7843;50.330;7.312;2023-11-21T05:02:18;1.25;;;0.90;;
15482;SDS011;7843;50.330;7.312;2023-11-21T05:04:48;0.80;;;0.60;;
15482;SDS011;7843;50.330;7.312;2023-11-21T05:07:15;1.05;;;0.85;;
15482;SDS011;7843;50.330;7.312;2023-11-21T05:09:42;0.70;;;0.70;;
15482;SDS011;7843;50.330;7.312;2023-11-21T05:12:12;2.90;;;0.77;;
15482;SDS011;7843;50.330;7.312;2023-11-21T05:14:40;1.33;;;0.70;;
15482;SDS011;7843;50.330;7.312;2023-11-21T05:17:08;0.90;;;0.80;;
15482;SDS011;7843;50.330;7.312;2023-11-21T05:19:34;0.70;;;0.60;;
15482;SDS011;7843;50.330;7.312;2023-11-21T05:22:01;1.30;;;0.57;;
15482;SDS011;7843;50.330;7.312;2023-11-21T05:24:28;1.33;;;0.97;;
15482;SDS011;7843;50.330;7.312;2023-11-21T05:26:55;1.23;;;0.82;;
15482;SDS011;7843;50.330;7.312;2023-11-21T05:29:22;1.02;;;0.93;;
15482;SDS011;7843;50.330;7.312;2023-11-21T05:31:49;1.73;;;0.98;;
15482;SDS011;7843;50.330;7.312;2023-11-21T05:34:15;1.60;;;0.95;;
15482;SDS011;7843;50.330;7.312;2023-11-21T05:36:43;1.48;;;0.70;;
15482;SDS011;7843;50.330;7.312;2023-11-21T05:39:11;1.67;;;1.37;;
15482;SDS011;7843;50.330;7.312;2023-11-21T05:41:39;1.70;;;1.42;;
15482;SDS011;7843;50.330;7.312;2023-11-21T05:44:07;2.22;;;1.58;;
15482;SDS011;7843;50.330;7.312;2023-11-21T05:46:35;1.30;;;1.20;;
15482;SDS011;7843;50.330;7.312;2023-11-21T05:49:02;8.57;;;1.33;;
15482;SDS011;7843;50.330;7.312;2023-11-21T05:51:29;1.83;;;1.43;;
15482;SDS011;7843;50.330;7.312;2023-11-21T05:53:55;4.33;;;1.93;;
15482;SDS011;7843;50.330;7.312;2023-11-21T05:56:22;3.92;;;2.20;;
15482;SDS011;7843;50.330;7.312;2023-11-21T05:58:49;3.10;;;1.77;;
15482;SDS011;7843;50.330;7.312;2023-11-21T06:01:17;4.80;;;2.30;;
15482;SDS011;7843;50.330;7.312;2023-11-21T06:03:44;2.23;;;1.83;;
15482;SDS011;7843;50.330;7.312;2023-11-21T06:06:11;3.15;;;1.92;;
15482;SDS011;7843;50.330;7.312;2023-11-21T06:08:38;2.20;;;1.95;;
15482;SDS011;7843;50.330;7.312;2023-11-21T06:11:05;9.85;;;2.38;;
15482;SDS011;7843;50.330;7.312;2023-11-21T06:13:32;3.53;;;2.35;;
15482;SDS011;7843;50.330;7.312;2023-11-21T06:15:58;2.90;;;2.00;;
15482;SDS011;7843;50.330;7.312;2023-11-21T06:18:26;3.05;;;2.05;;
15482;SDS011;7843;50.330;7.312;2023-11-21T06:20:53;4.18;;;2.88;;
15482;SDS011;7843;50.330;7.312;2023-11-21T06:23:20;2.53;;;2.20;;
15482;SDS011;7843;50.330;7.312;2023-11-21T06:25:46;3.67;;;2.22;;
15482;SDS011;7843;50.330;7.312;2023-11-21T06:28:13;3.17;;;1.90;;
15482;SDS011;7843;50.330;7.312;2023-11-21T06:30:43;6.90;;;3.33;;
15482;SDS011;7843;50.330;7.312;2023-11-21T06:33:11;3.13;;;1.90;;
15482;SDS011;7843;50.330;7.312;2023-11-21T06:35:38;4.40;;;2.88;;
15482;SDS011;7843;50.330;7.312;2023-11-21T06:38:05;5.20;;;2.70;;
15482;SDS011;7843;50.330;7.312;2023-11-21T06:40:31;4.80;;;2.63;;
15482;SDS011;7843;50.330;7.312;2023-11-21T06:42:59;3.33;;;2.37;;
15482;SDS011;7843;50.330;7.312;2023-11-21T06:45:26;2.63;;;1.83;;
15482;SDS011;7843;50.330;7.312;2023-11-21T06:47:53;3.65;;;2.67;;
15482;SDS011;7843;50.330;7.312;2023-11-21T06:50:20;2.22;;;1.88;;
15482;SDS011;7843;50.330;7.312;2023-11-21T06:52:47;2.70;;;1.97;;
15482;SDS011;7843;50.330;7.312;2023-11-21T06:55:14;4.00;;;2.47;;
15482;SDS011;7843;50.330;7.312;2023-11-21T06:57:42;4.60;;;2.45;;
15482;SDS011;7843;50.330;7.312;2023-11-21T07:00:09;5.90;;;2.80;;
15482;SDS011;7843;50.330;7.312;2023-11-21T07:02:37;5.43;;;2.65;;
15482;SDS011;7843;50.330;7.312;2023-11-21T07:05:05;4.60;;;3.25;;
15482;SDS011;7843;50.330;7.312;2023-11-21T07:07:32;5.03;;;2.22;;
15482;SDS011;7843;50.330;7.312;2023-11-21T07:10:01;5.15;;;3.15;;
15482;SDS011;7843;50.330;7.312;2023-11-21T07:12:30;4.97;;;2.55;;
15482;SDS011;7843;50.330;7.312;2023-11-21T07:14:57;5.05;;;2.88;;
15482;SDS011;7843;50.330;7.312;2023-11-21T07:17:24;6.18;;;3.35;;
15482;SDS011;7843;50.330;7.312;2023-11-21T07:19:51;8.27;;;3.30;;
15482;SDS011;7843;50.330;7.312;2023-11-21T07:22:18;3.63;;;2.38;;
15482;SDS011;7843;50.330;7.312;2023-11-21T07:24:48;6.55;;;2.75;;
15482;SDS011;7843;50.330;7.312;2023-11-21T07:27:17;4.38;;;2.63;;
15482;SDS011;7843;50.330;7.312;2023-11-21T07:29:44;5.53;;;2.78;;
15482;SDS011;7843;50.330;7.312;2023-11-21T07:32:11;6.53;;;1.90;;
15482;SDS011;7843;50.330;7.312;2023-11-21T07:34:39;4.88;;;3.08;;
15482;SDS011;7843;50.330;7.312;2023-11-21T07:37:06;6.00;;;3.53;;
15482;SDS011;7843;50.330;7.312;2023-11-21T07:39:32;3.60;;;2.10;;
15482;SDS011;7843;50.330;7.312;2023-11-21T07:41:59;7.93;;;3.85;;
15482;SDS011;7843;50.330;7.312;2023-11-21T07:44:26;3.15;;;2.10;;
15482;SDS011;7843;50.330;7.312;2023-11-21T07:46:53;3.85;;;2.80;;
15482;SDS011;7843;50.330;7.312;2023-11-21T07:49:24;4.78;;;3.38;;
15482;SDS011;7843;50.330;7.312;2023-11-21T07:51:51;5.03;;;2.80;;
15482;SDS011;7843;50.330;7.312;2023-11-21T07:54:18;5.72;;;3.22;;
15482;SDS011;7843;50.330;7.312;2023-11-21T07:56:44;4.38;;;2.63;;
15482;SDS011;7843;50.330;7.312;2023-11-21T07:59:11;5.75;;;2.70;;
15482;SDS011;7843;50.330;7.312;2023-11-21T08:01:38;6.03;;;3.25;;
15482;SDS011;7843;50.330;7.312;2023-11-21T08:04:06;5.40;;;2.93;;
15482;SDS011;7843;50.330;7.312;2023-11-21T08:06:34;4.47;;;2.57;;
15482;SDS011;7843;50.330;7.312;2023-11-21T08:09:01;4.30;;;2.55;;
15482;SDS011;7843;50.330;7.312;2023-11-21T08:11:28;2.90;;;2.08;;
15482;SDS011;7843;50.330;7.312;2023-11-21T08:13:57;5.45;;;2.63;;
15482;SDS011;7843;50.330;7.312;2023-11-21T08:16:25;3.70;;;2.85;;
15482;SDS011;7843;50.330;7.312;2023-11-21T08:18:52;6.72;;;3.40;;
15482;SDS011;7843;50.330;7.312;2023-11-21T08:21:18;7.50;;;3.40;;
15482;SDS011;7843;50.330;7.312;2023-11-21T08:23:45;5.95;;;3.15;;
15482;SDS011;7843;50.330;7.312;2023-11-21T08:26:15;7.90;;;3.08;;
15482;SDS011;7843;50.330;7.312;2023-11-21T08:28:43;6.95;;;3.47;;
15482;SDS011;7843;50.330;7.312;2023-11-21T08:31:09;3.67;;;2.33;;
15482;SDS011;7843;50.330;7.312;2023-11-21T08:33:38;6.78;;;2.80;;
15482;SDS011;7843;50.330;7.312;2023-11-21T08:36:08;7.20;;;2.80;;
15482;SDS011;7843;50.330;7.312;2023-11-21T08:38:35;5.68;;;3.60;;
15482;SDS011;7843;50.330;7.312;2023-11-21T08:41:05;5.90;;;2.33;;
15482;SDS011;7843;50.330;7.312;2023-11-21T08:43:35;7.50;;;2.60;;
15482;SDS011;7843;50.330;7.312;2023-11-21T08:46:06;7.07;;;3.58;;
15482;SDS011;7843;50.330;7.312;2023-11-21T08:48:35;7.40;;;3.07;;
15482;SDS011;7843;50.330;7.312;2023-11-21T08:51:05;7.53;;;3.25;;
15482;SDS011;7843;50.330;7.312;2023-11-21T08:53:32;7.13;;;3.45;;
15482;SDS011;7843;50.330;7.312;2023-11-21T08:55:59;5.38;;;3.67;;
15482;SDS011;7843;50.330;7.312;2023-11-21T08:58:26;6.13;;;3.42;;
15482;SDS011;7843;50.330;7.312;2023-11-21T09:00:53;4.88;;;3.05;;
15482;SDS011;7843;50.330;7.312;2023-11-21T09:03:20;6.10;;;3.17;;
15482;SDS011;7843;50.330;7.312;2023-11-21T09:05:47;8.07;;;3.05;;
15482;SDS011;7843;50.330;7.312;2023-11-21T09:08:13;5.85;;;2.35;;
15482;SDS011;7843;50.330;7.312;2023-11-21T09:10:40;7.32;;;3.30;;
15482;SDS011;7843;50.330;7.312;2023-11-21T09:13:09;6.10;;;3.15;;
15482;SDS011;7843;50.330;7.312;2023-11-21T09:15:36;5.65;;;2.90;;
15482;SDS011;7843;50.330;7.312;2023-11-21T09:18:03;9.73;;;4.53;;
15482;SDS011;7843;50.330;7.312;2023-11-21T09:20:31;4.25;;;3.22;;
15482;SDS011;7843;50.330;7.312;2023-11-21T09:22:58;6.57;;;3.25;;
15482;SDS011;7843;50.330;7.312;2023-11-21T09:25:24;5.15;;;3.17;;
15482;SDS011;7843;50.330;7.312;2023-11-21T09:27:51;8.20;;;3.55;;
15482;SDS011;7843;50.330;7.312;2023-11-21T09:30:18;8.82;;;3.42;;
15482;SDS011;7843;50.330;7.312;2023-11-21T09:32:46;5.07;;;2.97;;
15482;SDS011;7843;50.330;7.312;2023-11-21T09:35:13;6.05;;;3.00;;
15482;SDS011;7843;50.330;7.312;2023-11-21T09:37:40;8.00;;;2.97;;
15482;SDS011;7843;50.330;7.312;2023-11-21T09:40:09;6.07;;;3.28;;
15482;SDS011;7843;50.330;7.312;2023-11-21T09:42:42;5.43;;;3.30;;
15482;SDS011;7843;50.330;7.312;2023-11-21T09:45:15;7.65;;;3.78;;
15482;SDS011;7843;50.330;7.312;2023-11-21T09:47:54;10.20;;;4.32;;
15482;SDS011;7843;50.330;7.312;2023-11-21T09:50:22;5.13;;;2.95;;
15482;SDS011;7843;50.330;7.312;2023-11-21T09:55:30;6.05;;;3.30;;
15482;SDS011;7843;50.330;7.312;2023-11-21T09:58:02;4.85;;;2.63;;
15482;SDS011;7843;50.330;7.312;2023-11-21T10:00:32;7.43;;;3.45;;
15482;SDS011;7843;50.330;7.312;2023-11-21T10:02:59;7.60;;;3.05;;
15482;SDS011;7843;50.330;7.312;2023-11-21T10:05:26;3.20;;;2.38;;
15482;SDS011;7843;50.330;7.312;2023-11-21T10:07:54;2.78;;;1.77;;
15482;SDS011;7843;50.330;7.312;2023-11-21T10:10:23;2.88;;;2.10;;
15482;SDS011;7843;50.330;7.312;2023-11-21T10:12:54;4.70;;;2.97;;
15482;SDS011;7843;50.330;7.312;2023-11-21T10:15:23;5.35;;;3.00;;
15482;SDS011;7843;50.330;7.312;2023-11-21T10:17:53;4.03;;;2.58;;
15482;SDS011;7843;50.330;7.312;2023-11-21T10:20:22;3.90;;;2.10;;
15482;SDS011;7843;50.330;7.312;2023-11-21T10:22:50;9.93;;;2.58;;
15482;SDS011;7843;50.330;7.312;2023-11-21T10:25:17;3.90;;;2.28;;
15482;SDS011;7843;50.330;7.312;2023-11-21T10:27:47;6.05;;;2.63;;
15482;SDS011;7843;50.330;7.312;2023-11-21T10:30:17;3.53;;;2.00;;
15482;SDS011;7843;50.330;7.312;2023-11-21T10:32:44;5.78;;;2.53;;
15482;SDS011;7843;50.330;7.312;2023-11-21T10:35:11;4.90;;;2.60;;
15482;SDS011;7843;50.330;7.312;2023-11-21T10:37:39;7.63;;;2.53;;
15482;SDS011;7843;50.330;7.312;2023-11-21T10:40:06;3.92;;;2.45;;
15482;SDS011;7843;50.330;7.312;2023-11-21T10:42:40;3.72;;;2.03;;
15482;SDS011;7843;50.330;7.312;2023-11-21T10:45:08;4.07;;;2.40;;
15482;SDS011;7843;50.330;7.312;2023-11-21T10:47:41;5.32;;;2.30;;
15482;SDS011;7843;50.330;7.312;2023-11-21T10:50:08;5.93;;;2.75;;
15482;SDS011;7843;50.330;7.312;2023-11-21T10:52:37;3.80;;;2.15;;
15482;SDS011;7843;50.330;7.312;2023-11-21T10:55:15;7.32;;;2.67;;
15482;SDS011;7843;50.330;7.312;2023-11-21T10:57:44;5.80;;;3.13;;
15482;SDS011;7843;50.330;7.312;2023-11-21T11:00:14;4.18;;;2.50;;
15482;SDS011;7843;50.330;7.312;2023-11-21T11:02:42;13.25;;;3.58;;
15482;SDS011;7843;50.330;7.312;2023-11-21T11:05:09;5.43;;;2.55;;
15482;SDS011;7843;50.330;7.312;2023-11-21T11:07:38;5.43;;;3.05;;
15482;SDS011;7843;50.330;7.312;2023-11-21T11:10:09;9.77;;;3.13;;
15482;SDS011;7843;50.330;7.312;2023-11-21T11:12:41;5.57;;;2.60;;
15482;SDS011;7843;50.330;7.312;2023-11-21T11:15:08;7.03;;;3.03;;
15482;SDS011;7843;50.330;7.312;2023-11-21T11:17:37;5.63;;;2.97;;
15482;SDS011;7843;50.330;7.312;2023-11-21T11:20:05;3.83;;;2.20;;
15482;SDS011;7843;50.330;7.312;2023-11-21T11:28:03;5.93;;;2.67;;
15482;SDS011;7843;50.330;7.312;2023-11-21T11:33:33;7.15;;;2.92;;
15482;SDS011;7843;50.330;7.312;2023-11-21T11:36:19;6.27;;;3.50;;
15482;SDS011;7843;50.330;7.312;2023-11-21T11:38:53;7.13;;;3.57;;
15482;SDS011;7843;50.330;7.312;2023-11-21T11:41:25;4.97;;;3.10;;
15482;SDS011;7843;50.330;7.312;2023-11-21T11:43:53;5.57;;;3.40;;
15482;SDS011;7843;50.330;7.312;2023-11-21T11:46:20;9.93;;;2.87;;
15482;SDS011;7843;50.330;7.312;2023-11-21T11:49:07;5.63;;;3.35;;
15482;SDS011;7843;50.330;7.312;2023-11-21T11:51:34;6.22;;;2.70;;
15482;SDS011;7843;50.330;7.312;2023-11-21T11:54:02;5.45;;;2.85;;
15482;SDS011;7843;50.330;7.312;2023-11-21T11:56:33;4.45;;;2.30;;
15482;SDS011;7843;50.330;7.312;2023-11-21T11:59:01;5.90;;;3.00;;
15482;SDS011;7843;50.330;7.312;2023-11-21T12:01:30;5.97;;;2.97;;
15482;SDS011;7843;50.330;7.312;2023-11-21T12:06:41;7.10;;;3.38;;
15482;SDS011;7843;50.330;7.312;2023-11-21T12:09:23;5.30;;;3.30;;
15482;SDS011;7843;50.330;7.312;2023-11-21T12:11:52;6.30;;;2.38;;
15482;SDS011;7843;50.330;7.312;2023-11-21T12:14:21;8.38;;;2.92;;
15482;SDS011;7843;50.330;7.312;2023-11-21T12:16:48;7.75;;;3.80;;
15482;SDS011;7843;50.330;7.312;2023-11-21T12:19:15;4.95;;;2.88;;
15482;SDS011;7843;50.330;7.312;2023-11-21T12:21:42;5.60;;;3.23;;
15482;SDS011;7843;50.330;7.312;2023-11-21T12:24:10;4.43;;;2.50;;
15482;SDS011;7843;50.330;7.312;2023-11-21T12:26:40;4.93;;;2.35;;
15482;SDS011;7843;50.330;7.312;2023-11-21T12:29:07;7.60;;;3.40;;
15482;SDS011;7843;50.330;7.312;2023-11-21T12:31:37;5.15;;;3.20;;
15482;SDS011;7843;50.330;7.312;2023-11-21T12:34:04;10.40;;;3.55;;
15482;SDS011;7843;50.330;7.312;2023-11-21T12:36:32;5.28;;;3.15;;
15482;SDS011;7843;50.330;7.312;2023-11-21T12:39:00;13.27;;;3.40;;
15482;SDS011;7843;50.330;7.312;2023-11-21T12:41:29;10.95;;;4.15;;
15482;SDS011;7843;50.330;7.312;2023-11-21T12:43:56;6.20;;;3.45;;
15482;SDS011;7843;50.330;7.312;2023-11-21T12:46:24;7.72;;;3.20;;
15482;SDS011;7843;50.330;7.312;2023-11-21T12:48:55;6.00;;;2.87;;
15482;SDS011;7843;50.330;7.312;2023-11-21T12:51:23;4.55;;;2.58;;
15482;SDS011;7843;50.330;7.312;2023-11-21T12:53:51;9.95;;;3.35;;
15482;SDS011;7843;50.330;7.312;2023-11-21T12:56:20;4.57;;;3.47;;
15482;SDS011;7843;50.330;7.312;2023-11-21T12:58:49;4.85;;;2.45;;
15482;SDS011;7843;50.330;7.312;2023-11-21T13:01:18;7.55;;;3.40;;
15482;SDS011;7843;50.330;7.312;2023-11-21T13:03:48;4.70;;;2.40;;
15482;SDS011;7843;50.330;7.312;2023-11-21T13:06:17;6.10;;;2.80;;
15482;SDS011;7843;50.330;7.312;2023-11-21T13:08:46;10.45;;;3.05;;
15482;SDS011;7843;50.330;7.312;2023-11-21T13:11:12;4.78;;;2.38;;
15482;SDS011;7843;50.330;7.312;2023-11-21T13:13:41;5.32;;;2.65;;
15482;SDS011;7843;50.330;7.312;2023-11-21T13:16:11;10.63;;;4.15;;
15482;SDS011;7843;50.330;7.312;2023-11-21T13:18:39;10.17;;;3.87;;
15482;SDS011;7843;50.330;7.312;2023-11-21T13:21:08;7.60;;;4.00;;
15482;SDS011;7843;50.330;7.312;2023-11-21T13:23:44;7.20;;;2.78;;
15482;SDS011;7843;50.330;7.312;2023-11-21T13:26:12;4.80;;;2.63;;
15482;SDS011;7843;50.330;7.312;2023-11-21T13:28:40;6.23;;;3.20;;
15482;SDS011;7843;50.330;7.312;2023-11-21T13:31:12;7.85;;;2.97;;
15482;SDS011;7843;50.330;7.312;2023-11-21T13:33:47;6.72;;;3.05;;
15482;SDS011;7843;50.330;7.312;2023-11-21T13:36:22;5.18;;;2.47;;
15482;SDS011;7843;50.330;7.312;2023-11-21T13:38:50;4.85;;;3.03;;
15482;SDS011;7843;50.330;7.312;2023-11-21T13:41:18;11.25;;;3.50;;
15482;SDS011;7843;50.330;7.312;2023-11-21T13:43:45;7.35;;;3.33;;
15482;SDS011;7843;50.330;7.312;2023-11-21T13:46:19;4.13;;;2.53;;
15482;SDS011;7843;50.330;7.312;2023-11-21T13:48:48;5.05;;;2.67;;
15482;SDS011;7843;50.330;7.312;2023-11-21T13:51:22;5.80;;;3.17;;
15482;SDS011;7843;50.330;7.312;2023-11-21T13:53:57;4.20;;;2.45;;
15482;SDS011;7843;50.330;7.312;2023-11-21T13:56:25;5.78;;;3.60;;
15482;SDS011;7843;50.330;7.312;2023-11-21T13:58:54;5.47;;;2.88;;
15482;SDS011;7843;50.330;7.312;2023-11-21T14:01:22;10.38;;;3.92;;
15482;SDS011;7843;50.330;7.312;2023-11-21T14:04:00;4.88;;;2.90;;
15482;SDS011;7843;50.330;7.312;2023-11-21T14:06:49;8.13;;;3.20;;
15482;SDS011;7843;50.330;7.312;2023-11-21T14:09:19;10.20;;;3.90;;
15482;SDS011;7843;50.330;7.312;2023-11-21T14:11:59;5.75;;;2.88;;
15482;SDS011;7843;50.330;7.312;2023-11-21T14:14:27;8.57;;;3.28;;
15482;SDS011;7843;50.330;7.312;2023-11-21T14:16:54;5.90;;;3.30;;
15482;SDS011;7843;50.330;7.312;2023-11-21T14:19:25;6.70;;;2.85;;
15482;SDS011;7843;50.330;7.312;2023-11-21T14:21:57;10.48;;;3.15;;
15482;SDS011;7843;50.330;7.312;2023-11-21T14:24:24;5.13;;;3.10;;
15482;SDS011;7843;50.330;7.312;2023-11-21T14:26:51;4.60;;;2.80;;
15482;SDS011;7843;50.330;7.312;2023-11-21T14:29:19;10.38;;;3.03;;
15482;SDS011;7843;50.330;7.312;2023-11-21T14:31:46;7.90;;;3.45;;
15482;SDS011;7843;50.330;7.312;2023-11-21T14:34:13;9.18;;;3.38;;
15482;SDS011;7843;50.330;7.312;2023-11-21T14:36:42;5.40;;;3.40;;
15482;SDS011;7843;50.330;7.312;2023-11-21T14:39:10;7.15;;;2.88;;
15482;SDS011;7843;50.330;7.312;2023-11-21T14:41:49;9.43;;;3.40;;
15482;SDS011;7843;50.330;7.312;2023-11-21T14:44:16;7.70;;;3.80;;
15482;SDS011;7843;50.330;7.312;2023-11-21T14:46:43;4.82;;;3.03;;
15482;SDS011;7843;50.330;7.312;2023-11-21T14:49:12;5.28;;;2.65;;
15482;SDS011;7843;50.330;7.312;2023-11-21T14:51:52;9.63;;;3.28;;
15482;SDS011;7843;50.330;7.312;2023-11-21T14:54:29;5.37;;;3.17;;
15482;SDS011;7843;50.330;7.312;2023-11-21T14:57:13;8.30;;;3.28;;
15482;SDS011;7843;50.330;7.312;2023-11-21T14:59:45;5.88;;;3.47;;
15482;SDS011;7843;50.330;7.312;2023-11-21T15:02:15;15.18;;;3.42;;
15482;SDS011;7843;50.330;7.312;2023-11-21T15:04:42;7.57;;;3.80;;
15482;SDS011;7843;50.330;7.312;2023-11-21T15:07:10;9.15;;;3.17;;
15482;SDS011;7843;50.330;7.312;2023-11-21T15:09:38;6.20;;;3.10;;
15482;SDS011;7843;50.330;7.312;2023-11-21T15:12:08;9.53;;;3.63;;
15482;SDS011;7843;50.330;7.312;2023-11-21T15:14:43;8.52;;;3.45;;
15482;SDS011;7843;50.330;7.312;2023-11-21T15:17:16;6.07;;;3.25;;
15482;SDS011;7843;50.330;7.312;2023-11-21T15:19:52;12.63;;;3.63;;
15482;SDS011;7843;50.330;7.312;2023-11-21T15:22:20;6.63;;;3.55;;